West Navigator — 3ERR2 — position and weather

sailwx.info

Track history (hours):
 
Tides and Currents Weather Stations Pressure Air Temp Water Temp Dewpoint Dewpoint Depression Visibility Wind Speed Wind Dir Waves Ship Positions

West Navigator

Last reported at 2015-May-28 09:00 UTC. Time now 2015-May-28 12:12 UTC.
Position N 60°42' E 005°06'.

Length 253 m; draft 15 m.

Type: Other ship. MMSI: 370144000.

Wind from 100 at 6 knots

Waves 0.5 meters (2 feet), 12 second period

Barometer 998.7 mb
Air temperature 9.1 ° C
Dewpoint 5.0 ° C

Date/timePositionNaut miles runAvg speedWind from/ knotsBaromVisibWave heightAir tempDewpointWater temp
2015-May-28 09:00N 60°42' E 005°06'0 0.0 100 / 6998.7 0.5 9.1 5.0
2015-May-28 06:00N 60°42' E 005°06'0 0.0 130 / 21000.9 1.0 7.3 6.5
2015-May-28 03:00N 60°42' E 005°06'0 0.0 080 / 21003.0 0.5 7.5 5.7
2015-May-28 00:00N 60°42' E 005°06'0 0.0 120 / 101006.7 0.5 7.7 6.6
2015-May-27 21:00N 60°42' E 005°06'0 0.0 160 / 101009.7 0.5 8.1 7.0
2015-May-27 18:00N 60°42' E 005°06'0 0.0 210 / 91011.3 0.5 8.3 7.6
2015-May-27 15:00N 60°42' E 005°06'0 0.0 200 / 101012.7 1.0 9.9 5.7
2015-May-27 12:00N 60°42' E 005°06'0 0.0 230 / 81013.5 0.5 9.9 6.6
2015-May-27 09:00N 60°42' E 005°06'0 0.0 250 / 61014.1 1.5 7.8 5.9
2015-May-27 06:00N 60°42' E 005°06'0 0.0 120 / 41013.5 1.0 7.7 6.2
2015-May-27 03:00N 60°42' E 005°06'0 0.0 280 / 41013.6 1.5 7.0 5.7
2015-May-27 00:00N 60°42' E 005°06'0 0.0 290 / 31013.6 1.0 7.4 5.3
2015-May-26 21:10N 60°42' E 005°06'0 0.0 280 / 71013.6 1.0 7.9 6.4
2015-May-26 18:00N 60°42' E 005°06'0 0.0 230 / 71013.4 0.5 7.2 6.5
2015-May-26 15:00N 60°42' E 005°06'0 0.0 270 / 61013.3 1.0 9.0 6.6
2015-May-26 12:00N 60°42' E 005°06'0 0.0 280 / 71013.3 1.010.8 4.7
2015-May-26 09:00N 60°42' E 005°06'0 0.0 270 / 51013.0 1.0 8.9 5.8
2015-May-26 06:00N 60°42' E 005°06'0 0.0 300 / 51012.5 2.5 7.3 5.7
2015-May-26 03:00N 60°42' E 005°06'0 0.0 010 / 31012.3 1.5 6.1 5.2
2015-May-26 00:00N 60°42' E 005°06'0 0.0 010 / 61012.2 1.0 6.8 5.5
2015-May-25 21:00N 60°42' E 005°06'0 0.0 340 / 71012.0 0.5 7.6 5.8
2015-May-25 18:00N 60°42' E 005°06'0 0.0 330 / 81010.8 0.5 9.8 4.9
2015-May-25 15:00N 60°42' E 005°06'0 0.0 120 / 21010.3 1.0 9.5 6.0
2015-May-25 12:00N 60°42' E 005°06'0 0.0 290 / 71009.5 1.510.1 5.3
2015-May-25 09:00N 60°42' E 005°06'0 0.0 170 / 41009.2 0.5 7.8 5.1
2015-May-25 06:00N 60°42' E 005°06'0 0.0 190 / 31008.3 0.5 6.0 5.6
2015-May-25 03:00N 60°42' E 005°06'0 0.0 140 / 21007.6 0.5 6.0 5.3
2015-May-25 00:00N 60°42' E 005°06'0 0.0 190 / 41007.8 0.5 6.5 6.0
2015-May-24 21:00N 60°42' E 005°06'0 0.0 190 / 61008.5 0.5 7.0 6.1
2015-May-24 18:00N 60°42' E 005°06'0 0.0 230 / 61008.5 0.5 8.2 6.2
2015-May-24 15:00N 60°42' E 005°06'0 0.0 220 / 61008.1 0.5 7.8 7.4
2015-May-24 12:00N 60°42' E 005°06'0 0.0 170 / 151007.1 0.5 8.1 7.9
2015-May-24 09:00N 60°42' E 005°06'0 0.0 120 / 121007.7 6.8 6.3
2015-May-24 06:00N 60°42' E 005°06'0 0.0 1009.7 0.5 5.9 4.2
2015-May-24 03:00N 60°42' E 005°06'0 0.0 140 / 151013.0 0.5 5.7 2.4
2015-May-24 00:00N 60°42' E 005°06'0 0.0 160 / 141015.7 0.5 5.9 1.6
2015-May-23 21:00N 60°42' E 005°06'0 0.0 160 / 71017.5 1.0 6.6 1.8
2015-May-23 18:00N 60°42' E 005°06'0 0.0 250 / 51019.3 1.5 8.1 2.1
2015-May-23 15:10N 60°42' E 005°06'0 0.0 280 / 71020.3 0.5 7.6 2.2
2015-May-23 12:00N 60°42' E 005°06'0 0.0 340 / 61020.1 0.5 7.3 2.6
2015-May-23 09:00N 60°42' E 005°06'0 0.0 310 / 91019.2 1.0 7.8 2.3
2015-May-23 06:00N 60°42' E 005°06'0 0.0 320 / 91017.8 1.0 6.4 3.4
2015-May-23 03:10N 60°42' E 005°06'0 0.0 320 / 141015.3 0.5 6.5 3.9
2015-May-23 00:00N 60°42' E 005°06'0 0.0 310 / 141012.2 0.5 7.4 6.2
2015-May-22 21:00N 60°42' E 005°06'0 0.0 280 / 101009.4 0.5 6.5 5.7
2015-May-22 18:00N 60°42' E 005°06'0 0.0 260 / 101008.7 0.5 7.2 4.7
2015-May-22 15:00N 60°42' E 005°06'0 0.0 300 / 121008.8 1.0 5.3 3.7
2015-May-22 12:00N 60°42' E 005°06'0 0.0 260 / 121008.7 0.5 6.4 5.5
2015-May-22 09:00N 60°42' E 005°06'0 0.0 210 / 101010.2 0.5 7.4 6.4
2015-May-22 06:00N 60°42' E 005°06'0 0.0 240 / 61010.6 1.0 7.9 7.9
2015-May-22 03:00N 60°42' E 005°06'0 0.0 210 / 141009.8 0.5 9.0 9.0
2015-May-22 00:00N 60°42' E 005°06'0 0.0 180 / 161011.4 0.5 8.6 8.6
2015-May-21 21:00N 60°42' E 005°06'0 0.0 180 / 171013.1 0.5 8.0 7.9
2015-May-21 18:00N 60°42' E 005°06'0 0.0 170 / 171014.1 0.5 7.7 7.2
2015-May-21 15:00N 60°42' E 005°06'0 0.0 200 / 121014.8 0.5 8.0 7.1
2015-May-21 12:00N 60°42' E 005°06'0 0.0 200 / 131014.6 1.5 8.0 6.5
2015-May-21 09:00N 60°42' E 005°06'0 0.0 190 / 101014.4 1.0 8.7 6.3
2015-May-21 06:00N 60°42' E 005°06'0 0.0 140 / 61014.3 2.0 6.9 5.6
2015-May-21 03:00N 60°42' E 005°06'0 0.0 160 / 31014.0 1.5 6.2 5.5
2015-May-21 00:00N 60°42' E 005°06'0 0.0 060 / 11014.0 1.0 6.4 5.9
2015-May-20 21:00N 60°42' E 005°06'0 0.0 290 / 51013.7 1.0 8.6 6.2
2015-May-20 18:00N 60°42' E 005°06'0 0.0 340 / 31012.3 1.011.6 5.8
2015-May-20 15:00N 60°42' E 005°06'0 0.0 290 / 61010.8 1.011.7 5.7
2015-May-20 12:00N 60°42' E 005°06'0 0.0 270 / 81009.1 1.011.2 4.4
2015-May-20 09:00N 60°42' E 005°06'0 0.0 150 / 21006.8 1.0 9.8 4.0
2015-May-20 06:00N 60°42' E 005°06'0 0.0 160 / 41004.8 7.4 5.5
2015-May-20 03:00N 60°42' E 005°06'0 0.0 120 / 41002.6 0.5 6.8 4.7
2015-May-20 00:00N 60°42' E 005°06'0 0.0 120 / 81001.1 0.5 6.5 5.7
2015-May-19 21:00N 60°42' E 005°06'0 0.0 130 / 5999.2 0.5 7.7 6.0
2015-May-19 18:00N 60°42' E 005°06'0 0.0 200 / 3997.4 2.0 8.4 6.5
2015-May-19 15:00N 60°42' E 005°06'0 0.0 110 / 9995.7 7.6 5.9
2015-May-19 12:00N 60°42' E 005°06'0 0.0 160 / 9994.4 0.5 8.1 5.1
2015-May-19 09:00N 60°42' E 005°06'0 0.0 100 / 11991.2 0.511.7 0.1
2015-May-19 06:00N 60°42' E 005°06'0 0.0 090 / 10992.3 0.510.3 0.3
2015-May-19 03:00N 60°42' E 005°06'0 0.0 090 / 10993.8 0.511.1-2.6
2015-May-19 00:00N 60°42' E 005°06'0 0.0 110 / 10996.3 11.4-5.9
2015-May-18 21:00N 60°42' E 005°06'0 0.0 110 / 8998.0 0.511.7-0.6
2015-May-18 18:10N 60°42' E 005°06'0 0.0 080 / 5999.4 0.512.1-2.3
2015-May-18 15:00N 60°42' E 005°06'0 0.0 110 / 131002.3 0.510.8-1.2
2015-May-18 12:00N 60°42' E 005°06'0 0.0 140 / 81003.8 0.511.0-1.9
2015-May-18 09:00N 60°42' E 005°06'   120 / 111005.4 0.5 9.1 0.8
Track history (hours):
 
Tides and Currents Weather Stations Pressure Air Temp Water Temp Dewpoint Dewpoint Depression Visibility Wind Speed Wind Dir Waves Ship Positions

West Navigator

Last reported at 2015-May-28 09:00 UTC. Time now 2015-May-28 12:12 UTC.
Position N 60°42' E 005°06'.

Length 253 m; draft 15 m.

Type: Other ship. MMSI: 370144000.

Wind from 100 at 6 knots

Waves 0.5 meters (2 feet), 12 second period

Barometer 998.7 mb
Air temperature 9.1 ° C
Dewpoint 5.0 ° C

Date/timePositionNaut miles runAvg speedWind from/ knotsBaromVisibWave heightAir tempDewpointWater temp
2015-May-28 09:00N 60°42' E 005°06'0 0.0 100 / 6998.7 0.5 9.1 5.0
2015-May-28 06:00N 60°42' E 005°06'0 0.0 130 / 21000.9 1.0 7.3 6.5
2015-May-28 03:00N 60°42' E 005°06'0 0.0 080 / 21003.0 0.5 7.5 5.7
2015-May-28 00:00N 60°42' E 005°06'0 0.0 120 / 101006.7 0.5 7.7 6.6
2015-May-27 21:00N 60°42' E 005°06'0 0.0 160 / 101009.7 0.5 8.1 7.0
2015-May-27 18:00N 60°42' E 005°06'0 0.0 210 / 91011.3 0.5 8.3 7.6
2015-May-27 15:00N 60°42' E 005°06'0 0.0 200 / 101012.7 1.0 9.9 5.7
2015-May-27 12:00N 60°42' E 005°06'0 0.0 230 / 81013.5 0.5 9.9 6.6
2015-May-27 09:00N 60°42' E 005°06'0 0.0 250 / 61014.1 1.5 7.8 5.9
2015-May-27 06:00N 60°42' E 005°06'0 0.0 120 / 41013.5 1.0 7.7 6.2
2015-May-27 03:00N 60°42' E 005°06'0 0.0 280 / 41013.6 1.5 7.0 5.7
2015-May-27 00:00N 60°42' E 005°06'0 0.0 290 / 31013.6 1.0 7.4 5.3
2015-May-26 21:10N 60°42' E 005°06'0 0.0 280 / 71013.6 1.0 7.9 6.4
2015-May-26 18:00N 60°42' E 005°06'0 0.0 230 / 71013.4 0.5 7.2 6.5
2015-May-26 15:00N 60°42' E 005°06'0 0.0 270 / 61013.3 1.0 9.0 6.6
2015-May-26 12:00N 60°42' E 005°06'0 0.0 280 / 71013.3 1.010.8 4.7
2015-May-26 09:00N 60°42' E 005°06'0 0.0 270 / 51013.0 1.0 8.9 5.8
2015-May-26 06:00N 60°42' E 005°06'0 0.0 300 / 51012.5 2.5 7.3 5.7
2015-May-26 03:00N 60°42' E 005°06'0 0.0 010 / 31012.3 1.5 6.1 5.2
2015-May-26 00:00N 60°42' E 005°06'0 0.0 010 / 61012.2 1.0 6.8 5.5
2015-May-25 21:00N 60°42' E 005°06'0 0.0 340 / 71012.0 0.5 7.6 5.8
2015-May-25 18:00N 60°42' E 005°06'0 0.0 330 / 81010.8 0.5 9.8 4.9
2015-May-25 15:00N 60°42' E 005°06'0 0.0 120 / 21010.3 1.0 9.5 6.0
2015-May-25 12:00N 60°42' E 005°06'0 0.0 290 / 71009.5 1.510.1 5.3
2015-May-25 09:00N 60°42' E 005°06'0 0.0 170 / 41009.2 0.5 7.8 5.1
2015-May-25 06:00N 60°42' E 005°06'0 0.0 190 / 31008.3 0.5 6.0 5.6
2015-May-25 03:00N 60°42' E 005°06'0 0.0 140 / 21007.6 0.5 6.0 5.3
2015-May-25 00:00N 60°42' E 005°06'0 0.0 190 / 41007.8 0.5 6.5 6.0
2015-May-24 21:00N 60°42' E 005°06'0 0.0 190 / 61008.5 0.5 7.0 6.1
2015-May-24 18:00N 60°42' E 005°06'0 0.0 230 / 61008.5 0.5 8.2 6.2
2015-May-24 15:00N 60°42' E 005°06'0 0.0 220 / 61008.1 0.5 7.8 7.4
2015-May-24 12:00N 60°42' E 005°06'0 0.0 170 / 151007.1 0.5 8.1 7.9
2015-May-24 09:00N 60°42' E 005°06'0 0.0 120 / 121007.7 6.8 6.3
2015-May-24 06:00N 60°42' E 005°06'0 0.0 1009.7 0.5 5.9 4.2
2015-May-24 03:00N 60°42' E 005°06'0 0.0 140 / 151013.0 0.5 5.7 2.4
2015-May-24 00:00N 60°42' E 005°06'0 0.0 160 / 141015.7 0.5 5.9 1.6
2015-May-23 21:00N 60°42' E 005°06'0 0.0 160 / 71017.5 1.0 6.6 1.8
2015-May-23 18:00N 60°42' E 005°06'0 0.0 250 / 51019.3 1.5 8.1 2.1
2015-May-23 15:10N 60°42' E 005°06'0 0.0 280 / 71020.3 0.5 7.6 2.2
2015-May-23 12:00N 60°42' E 005°06'0 0.0 340 / 61020.1 0.5 7.3 2.6
2015-May-23 09:00N 60°42' E 005°06'0 0.0 310 / 91019.2 1.0 7.8 2.3
2015-May-23 06:00N 60°42' E 005°06'0 0.0 320 / 91017.8 1.0 6.4 3.4
2015-May-23 03:10N 60°42' E 005°06'0 0.0 320 / 141015.3 0.5 6.5 3.9
2015-May-23 00:00N 60°42' E 005°06'0 0.0 310 / 141012.2 0.5 7.4 6.2
2015-May-22 21:00N 60°42' E 005°06'0 0.0 280 / 101009.4 0.5 6.5 5.7
2015-May-22 18:00N 60°42' E 005°06'0 0.0 260 / 101008.7 0.5 7.2 4.7
2015-May-22 15:00N 60°42' E 005°06'0 0.0 300 / 121008.8 1.0 5.3 3.7
2015-May-22 12:00N 60°42' E 005°06'0 0.0 260 / 121008.7 0.5 6.4 5.5
2015-May-22 09:00N 60°42' E 005°06'0 0.0 210 / 101010.2 0.5 7.4 6.4
2015-May-22 06:00N 60°42' E 005°06'0 0.0 240 / 61010.6 1.0 7.9 7.9
2015-May-22 03:00N 60°42' E 005°06'0 0.0 210 / 141009.8 0.5 9.0 9.0
2015-May-22 00:00N 60°42' E 005°06'0 0.0 180 / 161011.4 0.5 8.6 8.6
2015-May-21 21:00N 60°42' E 005°06'0 0.0 180 / 171013.1 0.5 8.0 7.9
2015-May-21 18:00N 60°42' E 005°06'0 0.0 170 / 171014.1 0.5 7.7 7.2
2015-May-21 15:00N 60°42' E 005°06'0 0.0 200 / 121014.8 0.5 8.0 7.1
2015-May-21 12:00N 60°42' E 005°06'0 0.0 200 / 131014.6 1.5 8.0 6.5
2015-May-21 09:00N 60°42' E 005°06'0 0.0 190 / 101014.4 1.0 8.7 6.3
2015-May-21 06:00N 60°42' E 005°06'0 0.0 140 / 61014.3 2.0 6.9 5.6
2015-May-21 03:00N 60°42' E 005°06'0 0.0 160 / 31014.0 1.5 6.2 5.5
2015-May-21 00:00N 60°42' E 005°06'0 0.0 060 / 11014.0 1.0 6.4 5.9
2015-May-20 21:00N 60°42' E 005°06'0 0.0 290 / 51013.7 1.0 8.6 6.2
2015-May-20 18:00N 60°42' E 005°06'0 0.0 340 / 31012.3 1.011.6 5.8
2015-May-20 15:00N 60°42' E 005°06'0 0.0 290 / 61010.8 1.011.7 5.7
2015-May-20 12:00N 60°42' E 005°06'0 0.0 270 / 81009.1 1.011.2 4.4
2015-May-20 09:00N 60°42' E 005°06'0 0.0 150 / 21006.8 1.0 9.8 4.0
2015-May-20 06:00N 60°42' E 005°06'0 0.0 160 / 41004.8 7.4 5.5
2015-May-20 03:00N 60°42' E 005°06'0 0.0 120 / 41002.6 0.5 6.8 4.7
2015-May-20 00:00N 60°42' E 005°06'0 0.0 120 / 81001.1 0.5 6.5 5.7
2015-May-19 21:00N 60°42' E 005°06'0 0.0 130 / 5999.2 0.5 7.7 6.0
2015-May-19 18:00N 60°42' E 005°06'0 0.0 200 / 3997.4 2.0 8.4 6.5
2015-May-19 15:00N 60°42' E 005°06'0 0.0 110 / 9995.7 7.6 5.9
2015-May-19 12:00N 60°42' E 005°06'0 0.0 160 / 9994.4 0.5 8.1 5.1
2015-May-19 09:00N 60°42' E 005°06'0 0.0 100 / 11991.2 0.511.7 0.1
2015-May-19 06:00N 60°42' E 005°06'0 0.0 090 / 10992.3 0.510.3 0.3
2015-May-19 03:00N 60°42' E 005°06'0 0.0 090 / 10993.8 0.511.1-2.6
2015-May-19 00:00N 60°42' E 005°06'0 0.0 110 / 10996.3 11.4-5.9
2015-May-18 21:00N 60°42' E 005°06'0 0.0 110 / 8998.0 0.511.7-0.6
2015-May-18 18:10N 60°42' E 005°06'0 0.0 080 / 5999.4 0.512.1-2.3
2015-May-18 15:00N 60°42' E 005°06'0 0.0 110 / 131002.3 0.510.8-1.2
2015-May-18 12:00N 60°42' E 005°06'0 0.0 140 / 81003.8 0.511.0-1.9
2015-May-18 09:00N 60°42' E 005°06'   120 / 111005.4 0.5 9.1 0.8

Dump ship's entire track history